createdAt,value
2022-12-13T00:01:21.712Z,45.20
2022-12-13T00:03:49.398Z,43.07
2022-12-13T00:06:18.469Z,45.17
2022-12-13T00:08:46.218Z,41.83
2022-12-13T00:11:15.520Z,42.57
2022-12-13T00:13:44.001Z,41.30
2022-12-13T00:16:14.318Z,40.03
2022-12-13T00:18:42.006Z,43.63
2022-12-13T00:21:14.326Z,41.70
2022-12-13T00:23:43.258Z,40.53
2022-12-13T00:26:13.336Z,42.07
2022-12-13T00:28:41.242Z,42.00
2022-12-13T00:31:52.963Z,39.47
2022-12-13T00:33:57.105Z,39.47
2022-12-13T00:36:24.765Z,37.73
2022-12-13T00:39:01.487Z,40.13
2022-12-13T00:41:31.824Z,40.30
2022-12-13T00:43:59.630Z,39.60
2022-12-13T00:46:28.377Z,41.90
2022-12-13T00:48:57.575Z,41.47
2022-12-13T00:51:26.363Z,40.03
2022-12-13T00:53:55.634Z,42.23
2022-12-13T00:56:25.603Z,40.80
2022-12-13T00:58:54.736Z,38.60
2022-12-13T01:01:24.477Z,38.40
2022-12-13T01:03:52.587Z,42.67
2022-12-13T01:06:22.498Z,42.03
2022-12-13T01:08:50.786Z,38.20
2022-12-13T01:11:20.204Z,40.07
2022-12-13T01:13:47.961Z,40.53
2022-12-13T01:16:15.789Z,38.07
2022-12-13T01:18:44.284Z,37.47
2022-12-13T01:21:13.334Z,37.30
2022-12-13T01:23:41.434Z,38.27
2022-12-13T01:26:10.557Z,38.47
2022-12-13T01:28:39.658Z,37.40
2022-12-13T01:31:09.492Z,38.70
2022-12-13T01:33:37.491Z,38.43
2022-12-13T01:36:07.749Z,38.40
2022-12-13T01:38:37.947Z,39.27
2022-12-13T01:41:08.992Z,37.87
2022-12-13T01:44:00.873Z,38.70
2022-12-13T01:46:28.765Z,36.30
2022-12-13T01:49:00.858Z,35.67
2022-12-13T01:51:32.268Z,36.83
2022-12-13T01:54:00.795Z,38.27
2022-12-13T01:56:31.624Z,36.03
2022-12-13T01:59:01.335Z,35.43
2022-12-13T02:01:29.605Z,36.90
2022-12-13T02:03:57.271Z,34.80
2022-12-13T02:06:29.771Z,36.00
2022-12-13T02:08:57.711Z,36.93
2022-12-13T02:11:26.292Z,36.97
2022-12-13T02:13:53.916Z,34.10
2022-12-13T02:16:32.308Z,35.03
2022-12-13T02:19:24.398Z,38.33
2022-12-13T02:21:58.164Z,32.90
2022-12-13T02:24:48.189Z,34.70
2022-12-13T02:27:35.151Z,33.63
2022-12-13T02:30:31.036Z,32.13
2022-12-13T02:33:22.127Z,31.53
2022-12-13T02:35:54.023Z,32.83
2022-12-13T02:38:26.800Z,34.40
2022-12-13T02:41:00.646Z,32.00
2022-12-13T02:43:33.615Z,35.13
2022-12-13T02:46:04.268Z,30.03
2022-12-13T02:48:34.556Z,34.13
2022-12-13T02:51:06.097Z,32.10
2022-12-13T02:53:34.496Z,32.57
2022-12-13T02:56:02.136Z,32.93
2022-12-13T02:58:34.530Z,32.77
2022-12-13T03:01:28.718Z,32.30
2022-12-13T03:04:03.372Z,29.53
2022-12-13T03:06:35.445Z,31.80
2022-12-13T03:09:13.127Z,27.10
2022-12-13T03:12:14.331Z,30.77
2022-12-13T03:15:00.403Z,31.90
2022-12-13T03:17:30.820Z,32.87
2022-12-13T03:19:58.706Z,31.13
2022-12-13T03:22:26.563Z,31.13
2022-12-13T03:24:54.224Z,29.40
2022-12-13T03:27:22.352Z,29.43
2022-12-13T03:29:50.117Z,31.67
2022-12-13T03:32:17.711Z,31.23
2022-12-13T03:34:49.661Z,33.33
2022-12-13T03:37:20.029Z,30.23
2022-12-13T03:39:47.683Z,28.90
2022-12-13T03:42:15.439Z,31.53
2022-12-13T03:44:43.253Z,26.03
2022-12-13T03:47:10.864Z,27.70
2022-12-13T03:49:38.594Z,29.77
2022-12-13T03:52:07.514Z,28.83
2022-12-13T03:54:35.178Z,27.70
2022-12-13T03:57:02.836Z,28.00
2022-12-13T03:59:30.612Z,30.50
2022-12-13T04:01:58.334Z,30.07
2022-12-13T04:04:26.008Z,28.80
2022-12-13T04:06:53.596Z,30.00
2022-12-13T04:09:23.082Z,28.10
2022-12-13T04:12:08.264Z,27.97
2022-12-13T04:14:35.868Z,27.80
2022-12-13T04:17:03.486Z,28.07
2022-12-13T04:19:31.089Z,27.70
2022-12-13T04:21:58.756Z,29.77
2022-12-13T04:24:31.381Z,27.70
2022-12-13T04:27:00.565Z,28.50
2022-12-13T04:29:34.107Z,28.40
2022-12-13T04:32:02.901Z,29.37
2022-12-13T04:34:36.495Z,30.40
2022-12-13T04:37:05.021Z,28.80
2022-12-13T04:39:34.727Z,28.40
2022-12-13T04:42:02.748Z,26.30
2022-12-13T04:44:36.471Z,28.37
2022-12-13T04:47:05.002Z,27.23
2022-12-13T04:49:33.242Z,27.63
2022-12-13T04:52:02.176Z,24.80
2022-12-13T04:54:36.149Z,28.10
2022-12-13T04:57:07.188Z,27.00
2022-12-13T04:59:35.019Z,25.80
2022-12-13T05:02:02.805Z,25.13
2022-12-13T05:04:32.925Z,29.40
2022-12-13T05:07:01.073Z,25.40
2022-12-13T05:09:28.686Z,26.37
2022-12-13T05:12:01.563Z,29.00
2022-12-13T05:14:31.127Z,25.77
2022-12-13T05:16:59.483Z,28.27
2022-12-13T05:19:30.407Z,26.20
2022-12-13T05:22:01.163Z,23.87
2022-12-13T05:24:30.769Z,26.03
2022-12-13T05:26:58.674Z,27.27
2022-12-13T05:29:47.001Z,23.80
2022-12-13T05:32:16.745Z,23.47
2022-12-13T05:34:49.328Z,22.73
2022-12-13T05:37:31.100Z,25.27
2022-12-13T05:40:18.299Z,22.87
2022-12-13T05:42:46.348Z,23.13
2022-12-13T05:45:14.962Z,24.50
2022-12-13T05:48:14.918Z,24.00
2022-12-13T05:51:10.619Z,24.93
2022-12-13T05:53:55.651Z,23.30
2022-12-13T05:57:23.498Z,24.83
2022-12-13T06:00:05.506Z,25.20
2022-12-13T06:02:56.077Z,25.33
2022-12-13T06:05:31.063Z,23.73
2022-12-13T06:11:10.917Z,24.90
2022-12-13T06:13:43.840Z,25.80
2022-12-13T06:16:23.642Z,24.40
2022-12-13T06:23:10.897Z,23.40
2022-12-13T06:28:43.935Z,23.23
2022-12-13T06:31:18.587Z,20.57
2022-12-13T06:37:02.767Z,23.33
2022-12-13T06:42:43.849Z,22.60
2022-12-13T06:45:23.574Z,22.27
2022-12-13T06:47:51.150Z,24.60
2022-12-13T06:50:18.848Z,23.90
2022-12-13T06:52:47.412Z,23.47
2022-12-13T06:55:15.154Z,23.10
2022-12-13T06:57:53.204Z,24.10
2022-12-13T07:00:22.240Z,25.30
2022-12-13T07:02:53.510Z,23.40
2022-12-13T07:05:21.303Z,23.33
2022-12-13T07:07:49.285Z,24.10
2022-12-13T07:10:22.317Z,22.97
2022-12-13T07:12:51.082Z,23.33
2022-12-13T07:15:20.238Z,25.00
2022-12-13T07:17:50.131Z,25.27
2022-12-13T07:20:19.067Z,22.87
2022-12-13T07:22:53.710Z,25.17
2022-12-13T07:25:26.937Z,22.80
2022-12-13T07:28:01.407Z,23.87
2022-12-13T07:30:32.365Z,23.03
2022-12-13T07:33:00.476Z,22.13
2022-12-13T07:35:28.176Z,24.03
2022-12-13T07:37:55.946Z,23.27
2022-12-13T07:40:23.945Z,20.17
2022-12-13T07:42:51.829Z,21.93
2022-12-13T07:45:19.641Z,21.97
2022-12-13T07:47:49.205Z,22.10
2022-12-13T07:50:23.934Z,23.63
2022-12-13T07:52:52.506Z,22.87
2022-12-13T07:55:22.929Z,24.67
2022-12-13T07:57:52.792Z,22.40
2022-12-13T08:00:21.392Z,23.57
2022-12-13T08:02:50.557Z,22.90
2022-12-13T08:05:26.768Z,22.80
2022-12-13T08:07:55.062Z,23.30
2022-12-13T08:10:22.697Z,22.93
2022-12-13T08:12:51.065Z,23.93
2022-12-13T08:15:18.957Z,22.47
2022-12-13T08:17:46.583Z,23.30
2022-12-13T08:20:21.987Z,23.13
2022-12-13T08:22:55.718Z,23.13
2022-12-13T08:25:31.784Z,21.80
2022-12-13T08:28:02.180Z,21.37
2022-12-13T08:30:30.785Z,23.90
2022-12-13T08:32:58.392Z,21.87
2022-12-13T08:35:34.020Z,21.33
2022-12-13T08:38:02.447Z,21.37
2022-12-13T08:40:30.301Z,22.37
2022-12-13T08:42:58.071Z,20.67
2022-12-13T08:45:26.943Z,20.37
2022-12-13T08:47:54.913Z,22.10
2022-12-13T08:50:22.793Z,22.27
2022-12-13T08:52:52.256Z,23.07
2022-12-13T08:55:31.449Z,21.90
2022-12-13T08:58:01.174Z,22.90
2022-12-13T09:00:29.253Z,24.83
2022-12-13T09:03:04.112Z,22.77
2022-12-13T09:05:35.194Z,20.40
2022-12-13T09:08:23.106Z,22.67
2022-12-13T09:10:59.589Z,21.30
2022-12-13T09:13:31.607Z,24.63
2022-12-13T09:16:03.258Z,21.13
2022-12-13T09:18:36.210Z,20.60
2022-12-13T09:21:10.732Z,23.23
2022-12-13T09:23:45.720Z,21.80
2022-12-13T09:26:16.155Z,21.97
2022-12-13T09:28:44.214Z,22.73
2022-12-13T09:31:13.527Z,23.23
2022-12-13T09:33:41.964Z,23.50
2022-12-13T09:36:12.512Z,20.37
2022-12-13T09:38:41.822Z,23.30
2022-12-13T09:41:19.536Z,23.53
2022-12-13T09:43:50.111Z,21.53
2022-12-13T09:46:24.480Z,21.60
2022-12-13T09:49:01.429Z,23.90
2022-12-13T09:51:43.019Z,22.70
2022-12-13T09:54:17.879Z,20.80
2022-12-13T09:56:50.745Z,22.80
2022-12-13T09:59:22.745Z,22.47
2022-12-13T10:01:50.739Z,20.70
2022-12-13T10:04:19.032Z,19.87
2022-12-13T10:06:46.628Z,20.27
2022-12-13T10:09:16.603Z,22.73
2022-12-13T10:11:50.727Z,21.93
2022-12-13T10:14:23.047Z,22.07
2022-12-13T10:16:53.201Z,20.97
2022-12-13T10:19:33.425Z,21.47
2022-12-13T10:22:02.884Z,18.47
2022-12-13T10:24:49.291Z,21.23
2022-12-13T10:27:18.806Z,18.83
2022-12-13T10:30:00.626Z,20.33
2022-12-13T10:32:28.660Z,19.10
2022-12-13T10:34:58.899Z,19.27
2022-12-13T10:37:30.585Z,18.47
2022-12-13T10:40:00.030Z,21.33
2022-12-13T10:42:32.300Z,18.43
2022-12-13T10:45:14.782Z,20.23
2022-12-13T10:47:43.651Z,19.87
2022-12-13T10:50:24.304Z,18.73
2022-12-13T10:52:52.066Z,16.90
2022-12-13T10:55:28.655Z,21.60
2022-12-13T10:57:58.421Z,21.13
2022-12-13T11:00:39.095Z,21.00
2022-12-13T11:03:08.171Z,21.63
2022-12-13T11:05:37.611Z,20.73
2022-12-13T11:08:16.829Z,19.00
2022-12-13T11:10:45.976Z,20.03
2022-12-13T11:13:24.772Z,21.17
2022-12-13T11:15:56.231Z,20.00
2022-12-13T11:18:25.897Z,19.70
2022-12-13T11:20:57.083Z,20.57
2022-12-13T11:23:29.025Z,20.10
2022-12-13T11:25:59.597Z,19.83
2022-12-13T11:28:46.836Z,19.13
2022-12-13T11:31:17.550Z,19.53
2022-12-13T11:33:53.577Z,20.53
2022-12-13T11:36:30.770Z,20.77
2022-12-13T11:39:07.733Z,21.50
2022-12-13T11:41:40.250Z,20.60
2022-12-13T11:44:13.047Z,21.50
2022-12-13T11:46:43.586Z,21.27
2022-12-13T11:49:17.855Z,19.27
2022-12-13T11:51:48.821Z,18.10
2022-12-13T11:54:23.997Z,19.67
2022-12-13T11:57:00.099Z,17.93
2022-12-13T11:59:40.180Z,18.83
2022-12-13T12:02:17.084Z,17.60
2022-12-13T12:04:47.138Z,18.77
2022-12-13T12:07:33.333Z,18.70
2022-12-13T12:10:06.293Z,17.07
2022-12-13T12:12:37.591Z,18.60
2022-12-13T12:15:16.045Z,18.97
2022-12-13T12:17:44.909Z,19.37
2022-12-13T12:20:23.590Z,18.27
2022-12-13T12:22:58.156Z,17.10
2022-12-13T12:25:31.759Z,17.37
2022-12-13T12:28:06.484Z,19.07
2022-12-13T12:30:42.264Z,18.50
2022-12-13T12:33:17.734Z,18.47
2022-12-13T12:35:57.230Z,18.13
2022-12-13T12:38:55.627Z,18.37
2022-12-13T12:41:32.761Z,17.53
2022-12-13T12:44:11.152Z,18.57
2022-12-13T12:47:01.607Z,19.50
2022-12-13T12:49:58.133Z,19.07
2022-12-13T12:52:32.389Z,19.17
2022-12-13T12:55:05.200Z,25.00
2022-12-13T12:57:40.634Z,19.50
2022-12-13T13:00:15.520Z,18.10
2022-12-13T13:02:47.750Z,18.40
2022-12-13T13:05:21.472Z,17.87
2022-12-13T13:07:52.859Z,17.83
2022-12-13T13:10:26.785Z,17.43
2022-12-13T13:13:11.760Z,20.87
2022-12-13T13:15:55.858Z,18.43
2022-12-13T13:18:44.409Z,18.17
2022-12-13T13:21:36.451Z,19.47
2022-12-13T13:24:19.096Z,19.23
2022-12-13T13:26:48.811Z,17.93
2022-12-13T13:29:43.227Z,19.00
2022-12-13T13:32:28.349Z,19.40
2022-12-13T13:35:54.385Z,19.40
2022-12-13T13:38:48.648Z,18.33
2022-12-13T13:41:57.640Z,19.23
2022-12-13T13:44:34.877Z,18.00
2022-12-13T13:47:13.408Z,19.17
2022-12-13T13:49:53.035Z,18.53
2022-12-13T13:52:25.868Z,20.80
2022-12-13T13:55:11.328Z,18.67
2022-12-13T13:58:11.238Z,18.10
2022-12-13T14:01:03.410Z,18.10
2022-12-13T14:04:05.380Z,17.87
2022-12-13T14:07:04.271Z,18.80
2022-12-13T14:09:51.853Z,20.83
2022-12-13T14:12:52.747Z,20.00
2022-12-13T14:15:59.169Z,20.07
2022-12-13T14:18:59.740Z,22.23
2022-12-13T14:21:35.244Z,20.23
2022-12-13T14:24:15.621Z,20.73
2022-12-13T14:26:51.916Z,19.13
2022-12-13T14:29:30.099Z,19.23
2022-12-13T14:31:58.541Z,20.50
2022-12-13T14:34:28.755Z,22.10
2022-12-13T14:36:59.186Z,22.53
2022-12-13T14:39:31.001Z,21.30
2022-12-13T14:42:00.293Z,19.97
2022-12-13T14:44:29.618Z,22.27
2022-12-13T14:46:58.584Z,22.80
2022-12-13T14:49:28.470Z,20.20
2022-12-13T14:52:01.474Z,22.00
2022-12-13T14:54:34.338Z,24.00
2022-12-13T14:57:05.458Z,22.03
2022-12-13T14:59:34.344Z,22.33
2022-12-13T15:02:05.328Z,23.17
2022-12-13T15:04:35.037Z,21.90
2022-12-13T15:07:07.758Z,22.63
2022-12-13T15:09:39.238Z,22.50
2022-12-13T15:12:15.245Z,22.80
2022-12-13T15:14:58.632Z,23.40
2022-12-13T15:17:29.628Z,24.93
2022-12-13T15:19:59.488Z,22.43
2022-12-13T15:22:31.838Z,24.60
2022-12-13T15:25:04.571Z,25.73
2022-12-13T15:27:35.671Z,25.00
2022-12-13T15:30:03.905Z,26.40
2022-12-13T15:32:31.843Z,25.03
2022-12-13T15:35:16.063Z,25.73
2022-12-13T15:37:47.109Z,25.70
2022-12-13T15:40:16.474Z,28.53
2022-12-13T15:42:46.830Z,27.10
2022-12-13T15:45:20.825Z,26.13
2022-12-13T15:47:49.157Z,26.47
2022-12-13T15:50:33.941Z,26.27
2022-12-13T15:53:03.311Z,27.97
2022-12-13T15:55:36.721Z,26.87
2022-12-13T15:58:05.271Z,28.10
2022-12-13T16:00:34.421Z,30.50
2022-12-13T16:03:10.066Z,29.23
2022-12-13T16:05:40.288Z,29.10
2022-12-13T16:08:14.278Z,30.10
2022-12-13T16:10:48.609Z,29.50
2022-12-13T16:13:25.658Z,29.73
2022-12-13T16:16:00.367Z,29.20
2022-12-13T16:18:44.890Z,28.43
2022-12-13T16:21:12.746Z,31.43
2022-12-13T16:23:40.495Z,32.90
2022-12-13T16:26:23.262Z,30.27
2022-12-13T16:28:51.239Z,30.13
2022-12-13T16:31:22.377Z,28.70
2022-12-13T16:33:50.373Z,29.33
2022-12-13T16:36:18.524Z,30.77
2022-12-13T16:38:46.299Z,31.47
2022-12-13T16:41:15.744Z,30.67
2022-12-13T16:43:53.911Z,30.03
2022-12-13T16:47:10.110Z,31.57
2022-12-13T16:49:19.860Z,33.30
2022-12-13T16:51:48.800Z,32.60
2022-12-13T16:54:17.672Z,31.90
2022-12-13T16:56:45.434Z,32.73
2022-12-13T16:59:16.056Z,31.60
2022-12-13T17:01:45.327Z,33.07
2022-12-13T17:04:19.222Z,33.20
2022-12-13T17:06:48.149Z,32.93
2022-12-13T17:09:15.965Z,33.20
2022-12-13T17:11:43.771Z,32.83
2022-12-13T17:14:11.840Z,33.00
2022-12-13T17:16:41.181Z,31.80
2022-12-13T17:19:10.575Z,33.30
2022-12-13T17:21:38.333Z,32.87
2022-12-13T17:24:08.139Z,32.77
2022-12-13T17:26:36.298Z,34.37
2022-12-13T17:29:04.573Z,31.03
2022-12-13T17:31:35.681Z,35.00
2022-12-13T17:34:05.687Z,32.83
2022-12-13T17:36:33.658Z,34.47
2022-12-13T17:39:02.063Z,33.10
2022-12-13T17:41:29.926Z,31.77
2022-12-13T17:44:00.365Z,31.00
2022-12-13T17:46:28.253Z,31.97
2022-12-13T17:48:56.255Z,33.63
2022-12-13T17:51:25.463Z,32.70
2022-12-13T17:53:53.297Z,31.90
2022-12-13T17:56:21.166Z,36.43
2022-12-13T17:58:49.658Z,30.93
2022-12-13T18:01:20.587Z,32.30
2022-12-13T18:03:48.971Z,33.97
2022-12-13T18:06:16.933Z,31.17
2022-12-13T18:08:46.871Z,34.40
2022-12-13T18:11:32.472Z,35.40
2022-12-13T18:14:01.143Z,33.03
2022-12-13T18:16:36.214Z,36.60
2022-12-13T18:19:06.100Z,31.50
2022-12-13T18:21:35.294Z,32.50
2022-12-13T18:24:05.373Z,34.43
2022-12-13T18:26:33.169Z,36.23
2022-12-13T18:29:00.994Z,32.33
2022-12-13T18:31:28.969Z,34.77
2022-12-13T18:33:56.914Z,33.10
2022-12-13T18:36:26.265Z,35.00
2022-12-13T18:38:54.312Z,33.00
2022-12-13T18:41:26.386Z,32.33
2022-12-13T18:43:59.503Z,32.60
2022-12-13T18:46:28.122Z,32.03
2022-12-13T18:48:56.764Z,33.83
2022-12-13T18:51:24.932Z,32.73
2022-12-13T18:53:52.866Z,30.63
2022-12-13T18:56:20.891Z,33.63
2022-12-13T18:58:50.713Z,31.00
2022-12-13T19:01:19.512Z,33.67
2022-12-13T19:03:49.231Z,32.57
2022-12-13T19:06:22.533Z,30.70
2022-12-13T19:08:51.982Z,33.70
2022-12-13T19:11:20.492Z,29.87
2022-12-13T19:13:50.498Z,32.40
2022-12-13T19:16:21.740Z,28.97
2022-12-13T19:18:50.148Z,28.93
2022-12-13T19:21:19.894Z,32.30
2022-12-13T19:23:55.001Z,31.70
2022-12-13T19:26:25.513Z,29.90
2022-12-13T19:28:56.560Z,32.37
2022-12-13T19:31:30.446Z,31.17
2022-12-13T19:34:00.701Z,30.43
2022-12-13T19:36:28.600Z,29.93
2022-12-13T19:38:56.900Z,30.93
2022-12-13T19:41:24.887Z,30.30
2022-12-13T19:43:54.296Z,31.50
2022-12-13T19:46:22.539Z,32.10
2022-12-13T19:48:50.676Z,30.33
2022-12-13T19:51:18.590Z,29.80
2022-12-13T19:53:47.169Z,30.30
2022-12-13T19:56:17.643Z,31.03
2022-12-13T19:58:46.831Z,32.50
2022-12-13T20:01:17.046Z,33.40
2022-12-13T20:03:46.349Z,31.20
2022-12-13T20:06:18.673Z,31.70
2022-12-13T20:08:46.639Z,30.57
2022-12-13T20:11:17.070Z,30.20
2022-12-13T20:13:44.939Z,29.37
2022-12-13T20:16:18.291Z,30.70
2022-12-13T20:18:46.569Z,30.27
2022-12-13T20:21:15.550Z,29.50
2022-12-13T20:23:48.692Z,29.67
2022-12-13T20:26:19.292Z,32.10
2022-12-13T20:28:47.416Z,30.70
2022-12-13T20:31:18.202Z,30.23
2022-12-13T20:33:46.497Z,29.17
2022-12-13T20:36:25.207Z,28.73
2022-12-13T20:38:55.245Z,30.27
2022-12-13T20:41:24.599Z,30.00
2022-12-13T20:43:52.852Z,29.50
2022-12-13T20:46:23.044Z,27.90
2022-12-13T20:48:51.900Z,27.73
2022-12-13T20:51:22.103Z,29.33
2022-12-13T20:53:53.395Z,28.13
2022-12-13T20:56:24.050Z,29.87
2022-12-13T20:58:52.237Z,27.60
2022-12-13T21:01:23.631Z,29.43
2022-12-13T21:03:53.802Z,28.20
2022-12-13T21:06:21.753Z,28.93
2022-12-13T21:08:52.700Z,27.77
2022-12-13T21:11:29.134Z,29.83
2022-12-13T21:14:02.449Z,28.60
2022-12-13T21:16:38.595Z,28.13
2022-12-13T21:19:08.771Z,29.50
2022-12-13T21:21:37.179Z,29.47
2022-12-13T21:24:06.089Z,27.20
2022-12-13T21:26:36.070Z,29.47
2022-12-13T21:29:07.357Z,29.57
2022-12-13T21:31:37.325Z,26.17
2022-12-13T21:34:06.492Z,27.63
2022-12-13T21:36:35.575Z,29.37
2022-12-13T21:39:05.942Z,28.13
2022-12-13T21:41:33.966Z,30.17
2022-12-13T21:44:01.799Z,29.27
2022-12-13T21:47:02.937Z,30.23
2022-12-13T21:49:20.072Z,29.87
2022-12-13T21:51:48.665Z,27.80
2022-12-13T21:54:18.330Z,28.93
2022-12-13T21:57:03.792Z,28.70
2022-12-13T21:59:31.995Z,27.87
2022-12-13T22:02:14.760Z,26.93
2022-12-13T22:04:45.398Z,29.47
2022-12-13T22:07:15.535Z,29.10
2022-12-13T22:09:44.983Z,29.23
2022-12-13T22:12:20.499Z,26.80
2022-12-13T22:14:48.512Z,28.53
2022-12-13T22:17:16.905Z,25.67
2022-12-13T22:19:48.711Z,27.80
2022-12-13T22:22:17.811Z,26.37
2022-12-13T22:24:52.709Z,27.30
2022-12-13T22:27:25.468Z,25.27
2022-12-13T22:29:54.330Z,29.07
2022-12-13T22:32:22.522Z,24.77
2022-12-13T22:34:52.002Z,28.83
2022-12-13T22:37:20.153Z,24.80
2022-12-13T22:39:47.996Z,27.80
2022-12-13T22:42:16.166Z,29.67
2022-12-13T22:44:43.999Z,28.00
2022-12-13T22:47:12.076Z,27.77
2022-12-13T22:49:40.253Z,26.00
2022-12-13T22:52:09.874Z,25.13
2022-12-13T22:54:38.005Z,27.63
2022-12-13T22:57:07.789Z,27.07
2022-12-13T22:59:36.078Z,25.10
2022-12-13T23:02:04.312Z,26.80
2022-12-13T23:04:35.131Z,26.60
2022-12-13T23:07:03.049Z,25.50
2022-12-13T23:09:33.036Z,27.27
2022-12-13T23:12:18.585Z,26.97
2022-12-13T23:14:46.726Z,24.20
2022-12-13T23:17:14.652Z,26.70
2022-12-13T23:19:49.425Z,26.77
2022-12-13T23:22:18.986Z,25.80
2022-12-13T23:24:48.328Z,24.67
2022-12-13T23:27:16.513Z,24.43
2022-12-13T23:29:45.238Z,26.43
2022-12-13T23:32:13.231Z,23.97
2022-12-13T23:34:41.181Z,25.60
2022-12-13T23:37:08.760Z,27.57
2022-12-13T23:39:36.624Z,25.23
2022-12-13T23:42:05.777Z,24.97
2022-12-13T23:44:33.562Z,26.50
2022-12-13T23:47:01.183Z,26.47
2022-12-13T23:49:28.975Z,23.67
2022-12-13T23:51:56.661Z,24.13
2022-12-13T23:54:24.476Z,23.47
2022-12-13T23:56:52.998Z,23.27
2022-12-13T23:59:22.136Z,24.77
